AirNav   Everest Fuels
 
 966 users online  

19TN Ferraraccio Field Airport
Clarksville, Tennessee, USA

GOING TO CLARKSVILLE?


FAA INFORMATION EFFECTIVE 03 JANUARY 2019

Location

FAA Identifier: 19TN
Lat/Long: 36-29-58.0000N / 087-11-25.0000W
36-29.966667N / 087-11.416667W
36.4994444 / -87.1902778
(estimated)
Elevation: 620 ft. / 189 m (estimated)
From city: 8 miles SE of CLARKSVILLE, TN
Time zone: UTC -6 (UTC -5 during Daylight Saving Time)
Zip code: 37043

Airport Operations

Airport use: Private use. Permission required prior to landing
Activation date: 09/2004
Control tower: no
ARTCC: MEMPHIS CENTER
FSS: JACKSON FLIGHT SERVICE STATION
Attendance: UNATNDD
Segmented circle: no

Airport Communications

WX ASOS at CKV (13 nm NW): 134.575 (931-431-3045)
WX AWOS-3 at M91 (13 nm E): 120.675 (615-384-8206)
WX AWOS-3 at EOD (15 nm W): PHONE 270-956-3100

Nearby radio navigation aids

VOR radial/distance  VOR name  Freq  Var
CKVr125/13.0CLARKSVILLE VOR/DME110.6001W
BNAr314/32.7NASHVILLE VORTAC114.1002W

 
NDB name  Hdg/Dist  Freq  Var  ID
SNUFF101/9.633501WCK -.-. -.-
DICKSON029/25.220301WDMZ -.. -- --..

Airport Services

Runway Information

Runway 8/26

Dimensions: 2200 x 40 ft. / 671 x 12 m
Surface: turf
RUNWAY 8  RUNWAY 26
Traffic pattern: leftleft

Airport Ownership and Management from official FAA records

Ownership: Privately-owned
Owner: CHRIS & ANNA FERRARACCIO
197 BAGWELL ROAD
CLARKSVILLE, TN 37043
Phone 931-302-4985
Manager: CHRIS FERRARACCIO
197 BAGWELL ROAD
CLARKSVILLE, TN 37043
Phone 931-302-4985

Airport Operational Statistics

Aircraft based on the field: 1
Single engine airplanes: 1
    

Additional Remarks

FOR CD CTC NASHVILLE APCH AT 615-695-4522.

Instrument Procedures

There are no published instrument procedures at 19TN.

Some nearby airports with instrument procedures:

KCKV - Outlaw Field Airport (13 nm NW)
M91 - Springfield Robertson County Airport (13 nm E)
KEOD - Sabre Army Airfield (Fort Campbell) (15 nm W)
KHOP - Campbell Army Airfield (Fort Campbell) (18 nm NW)
KJWN - John C Tune Airport (24 nm SE)
 
Loc | Ops | Rwys | IFR | FBO | Links
Com | Nav | Svcs | Stats | Notes
Area around 19TN (Ferraraccio Field Airport)
 
Road maps at: MapQuest Bing Google
 
Aerial photo
WARNING: Photo may not be current or correct
Aerial photo of 19TN (Ferraraccio Field Airport)
Photo taken 26-Sep-2006

Do you have a better or more recent aerial photo of Ferraraccio Field Airport that you would like to share? If so, please send us your photo.

 
Sectional chart

 
Airport distance calculator
Flying to Ferraraccio Field Airport? Find the distance to fly.

From to 19TN

Sunrise and sunset
Times for 22-Jan-2019
 Local
(UTC-6)
 Zulu
(UTC)
Morning civil twilight06:3012:30
Sunrise06:5812:58
Sunset17:0323:03
Evening civil twilight17:3123:31

Current date and time
Zulu (UTC)  22-Jan-2019 13:44:26
Local (UTC-6)  22-Jan-2019 07:44:26
 
METAR
KCKV 
13nm NW 
221252Z AUTO 14007KT 10SM CLR M03/M09 A3034 RMK AO2 SLP280 T10281094 $
KM91 
13nm E 
221335Z AUTO 15008KT 10SM CLR M00/M09 A3034 RMK A01
KEOD 
15nm W 
221258Z AUTO 13006KT 10SM CLR M02/M09 A3033 RMK AO2 SLP280 T10251092
KHOP 
18nm NW 
221256Z AUTO 14009KT 10SM CLR M02/M10 A3032 RMK AO2 SLP276 T10221096
KJWN 
24nm SE 
221335Z AUTO 08005KT 10SM CLR M01/M08 A3037 RMK A01
KM02 
25nm SW 
221335Z AUTO 18011KT 140V200 10SM CLR 01/M08 A3032 RMK A01
TAF
KCKV 
13nm NW 
221127Z 2212/2312 14009KT P6SM BKN250 WS020/18040KT FM221400 17015G25KT P6SM BKN250 FM221800 17016G30KT P6SM SCT060 FM230000 16020G35KT P6SM OVC035 FM230600 17020G32KT 6SM -SHRA OVC030
KHOP 
18nm NW 
220800Z 2208/2314 11012KT 9999 FEW150 QNH3030INS BECMG 2211/2212 14012KT 9999 FEW110 WS020/20038KT 530103 QNH3025INS BECMG 2213/2214 15012KT 9999 SCT030 BKN100 WS020/21040KT 530102 QNH3020INS BECMG 2215/2217 17015G25KT 9999 BKN010 OVC080 WS020/20040KT 550105 QNH3015INS BECMG 2300/2301 18012G18KT 6000 -RA OVC008 WS020/21050KT 550085 QNH2990INS BECMG 2313/2314 22015KT 6000 -RA OVC003 620709 550035 QNH2980INS TX09/2308Z TNM05/2208Z
NOTAMs
Click for the latest NOTAMs
NOTAMs are issued by the DoD/FAA and will open in a separate window not controlled by AirNav.

 

 
 

Would you like to see your business listed on this page?

 If your business provides an interesting product or service to pilots, flight crews, aircraft, or users of the Ferraraccio Field Airport, you should consider listing it here.  To start the listing process, click on the button below
 
Add a business
 

Other Pages about Ferraraccio Field Airport

Update a link
 
Copyright © AirNav, LLC. All rights reserved. Privacy Policy  Contact